sensor_id;sensor_type;location;lat;lon;timestamp;temperature;humidity
52765;DHT22;38650;44.536;18.664;2023-02-13T00:02:23;4.70;99.90
52765;DHT22;38650;44.536;18.664;2023-02-13T00:04:49;4.80;99.90
52765;DHT22;38650;44.536;18.664;2023-02-13T00:07:14;4.80;99.90
52765;DHT22;38650;44.536;18.664;2023-02-13T00:09:40;4.80;99.90
52765;DHT22;38650;44.536;18.664;2023-02-13T00:12:07;4.70;99.90
52765;DHT22;38650;44.536;18.664;2023-02-13T00:14:35;4.60;99.90
52765;DHT22;38650;44.536;18.664;2023-02-13T00:17:01;4.70;99.90
52765;DHT22;38650;44.536;18.664;2023-02-13T00:19:27;4.70;99.90
52765;DHT22;38650;44.536;18.664;2023-02-13T00:21:52;4.70;99.90
52765;DHT22;38650;44.536;18.664;2023-02-13T00:24:18;4.80;99.90
52765;DHT22;38650;44.536;18.664;2023-02-13T00:26:44;4.80;99.90
52765;DHT22;38650;44.536;18.664;2023-02-13T00:29:09;4.80;99.90
52765;DHT22;38650;44.536;18.664;2023-02-13T00:31:35;4.90;99.90
52765;DHT22;38650;44.536;18.664;2023-02-13T00:34:01;5.00;99.90
52765;DHT22;38650;44.536;18.664;2023-02-13T00:36:27;5.00;99.90
52765;DHT22;38650;44.536;18.664;2023-02-13T00:38:53;4.90;99.90
52765;DHT22;38650;44.536;18.664;2023-02-13T00:41:20;4.90;99.90
52765;DHT22;38650;44.536;18.664;2023-02-13T00:43:47;4.90;99.90
52765;DHT22;38650;44.536;18.664;2023-02-13T00:46:13;4.90;99.90
52765;DHT22;38650;44.536;18.664;2023-02-13T00:48:39;4.90;99.90
52765;DHT22;38650;44.536;18.664;2023-02-13T00:51:05;4.80;99.90
52765;DHT22;38650;44.536;18.664;2023-02-13T00:53:31;4.80;99.90
52765;DHT22;38650;44.536;18.664;2023-02-13T00:55:58;4.70;99.90
52765;DHT22;38650;44.536;18.664;2023-02-13T00:58:24;4.50;99.90
52765;DHT22;38650;44.536;18.664;2023-02-13T01:00:51;4.50;99.90
52765;DHT22;38650;44.536;18.664;2023-02-13T01:03:17;4.50;99.90
52765;DHT22;38650;44.536;18.664;2023-02-13T01:05:44;4.60;99.90
52765;DHT22;38650;44.536;18.664;2023-02-13T01:08:11;4.70;99.90
52765;DHT22;38650;44.536;18.664;2023-02-13T01:10:38;4.70;99.90
52765;DHT22;38650;44.536;18.664;2023-02-13T01:13:04;4.70;99.90
52765;DHT22;38650;44.536;18.664;2023-02-13T01:15:31;4.70;99.90
52765;DHT22;38650;44.536;18.664;2023-02-13T01:17:57;4.80;99.90
52765;DHT22;38650;44.536;18.664;2023-02-13T01:20:23;4.80;99.90
52765;DHT22;38650;44.536;18.664;2023-02-13T01:22:50;4.80;99.90
52765;DHT22;38650;44.536;18.664;2023-02-13T01:25:16;4.80;99.90
52765;DHT22;38650;44.536;18.664;2023-02-13T01:27:41;4.80;99.90
52765;DHT22;38650;44.536;18.664;2023-02-13T01:30:10;4.80;99.90
52765;DHT22;38650;44.536;18.664;2023-02-13T01:32:39;4.80;99.90
52765;DHT22;38650;44.536;18.664;2023-02-13T01:35:05;4.80;99.90
52765;DHT22;38650;44.536;18.664;2023-02-13T01:37:31;4.80;99.90
52765;DHT22;38650;44.536;18.664;2023-02-13T01:39:57;4.80;99.90
52765;DHT22;38650;44.536;18.664;2023-02-13T01:42:28;4.80;99.90
52765;DHT22;38650;44.536;18.664;2023-02-13T01:44:59;4.80;99.90
52765;DHT22;38650;44.536;18.664;2023-02-13T01:47:39;4.80;99.90
52765;DHT22;38650;44.536;18.664;2023-02-13T01:53:07;4.70;99.90
52765;DHT22;38650;44.536;18.664;2023-02-13T01:55:41;4.60;99.90
52765;DHT22;38650;44.536;18.664;2023-02-13T01:58:10;4.60;99.90
52765;DHT22;38650;44.536;18.664;2023-02-13T02:00:37;4.60;99.90
52765;DHT22;38650;44.536;18.664;2023-02-13T02:03:21;4.50;99.90
52765;DHT22;38650;44.536;18.664;2023-02-13T02:05:50;4.50;99.90
52765;DHT22;38650;44.536;18.664;2023-02-13T02:08:17;4.50;99.90
52765;DHT22;38650;44.536;18.664;2023-02-13T02:10:43;4.50;99.90
52765;DHT22;38650;44.536;18.664;2023-02-13T02:15:35;4.60;99.90
52765;DHT22;38650;44.536;18.664;2023-02-13T02:18:01;4.50;99.90
52765;DHT22;38650;44.536;18.664;2023-02-13T02:41:57;4.20;99.90
52765;DHT22;38650;44.536;18.664;2023-02-13T02:47:27;4.20;99.90
52765;DHT22;38650;44.536;18.664;2023-02-13T02:50:33;4.20;99.90
52765;DHT22;38650;44.536;18.664;2023-02-13T02:53:16;4.30;99.90
52765;DHT22;38650;44.536;18.664;2023-02-13T02:55:47;4.10;99.90
52765;DHT22;38650;44.536;18.664;2023-02-13T02:58:18;4.00;99.90
52765;DHT22;38650;44.536;18.664;2023-02-13T03:01:05;4.10;99.90
52765;DHT22;38650;44.536;18.664;2023-02-13T03:03:51;4.10;99.90
52765;DHT22;38650;44.536;18.664;2023-02-13T03:09:15;4.20;99.90
52765;DHT22;38650;44.536;18.664;2023-02-13T03:12:02;4.10;99.90
52765;DHT22;38650;44.536;18.664;2023-02-13T03:14:46;4.00;99.90
52765;DHT22;38650;44.536;18.664;2023-02-13T03:17:14;4.00;99.90
52765;DHT22;38650;44.536;18.664;2023-02-13T03:20:11;3.90;99.90
52765;DHT22;38650;44.536;18.664;2023-02-13T03:28:21;4.00;99.90
52765;DHT22;38650;44.536;18.664;2023-02-13T03:36:46;4.00;99.90
52765;DHT22;38650;44.536;18.664;2023-02-13T03:44:59;4.00;99.90
52765;DHT22;38650;44.536;18.664;2023-02-13T03:47:47;4.00;99.90
52765;DHT22;38650;44.536;18.664;2023-02-13T03:50:14;4.00;99.90
52765;DHT22;38650;44.536;18.664;2023-02-13T03:52:50;3.90;99.90
52765;DHT22;38650;44.536;18.664;2023-02-13T03:55:38;3.90;99.90
52765;DHT22;38650;44.536;18.664;2023-02-13T03:58:29;3.90;99.90
52765;DHT22;38650;44.536;18.664;2023-02-13T04:01:17;3.80;99.90
52765;DHT22;38650;44.536;18.664;2023-02-13T04:03:54;3.80;99.90
52765;DHT22;38650;44.536;18.664;2023-02-13T04:06:33;3.60;99.90
52765;DHT22;38650;44.536;18.664;2023-02-13T04:09:00;3.60;99.90
52765;DHT22;38650;44.536;18.664;2023-02-13T04:17:01;3.60;99.90
52765;DHT22;38650;44.536;18.664;2023-02-13T04:19:28;3.60;99.90
52765;DHT22;38650;44.536;18.664;2023-02-13T04:21:57;3.40;99.90
52765;DHT22;38650;44.536;18.664;2023-02-13T04:24:24;3.30;99.90
52765;DHT22;38650;44.536;18.664;2023-02-13T04:26:50;3.20;99.90
52765;DHT22;38650;44.536;18.664;2023-02-13T04:29:17;3.10;99.90
52765;DHT22;38650;44.536;18.664;2023-02-13T04:31:42;3.00;99.90
52765;DHT22;38650;44.536;18.664;2023-02-13T04:34:08;3.10;99.90
52765;DHT22;38650;44.536;18.664;2023-02-13T04:36:34;3.10;99.90
52765;DHT22;38650;44.536;18.664;2023-02-13T04:38:59;3.00;99.90
52765;DHT22;38650;44.536;18.664;2023-02-13T04:41:25;3.00;99.90
52765;DHT22;38650;44.536;18.664;2023-02-13T04:43:50;3.00;99.90
52765;DHT22;38650;44.536;18.664;2023-02-13T04:46:17;3.00;99.90
52765;DHT22;38650;44.536;18.664;2023-02-13T04:48:43;3.10;99.90
52765;DHT22;38650;44.536;18.664;2023-02-13T04:51:09;3.10;99.90
52765;DHT22;38650;44.536;18.664;2023-02-13T04:53:34;3.00;99.90
52765;DHT22;38650;44.536;18.664;2023-02-13T04:56:00;3.00;99.90
52765;DHT22;38650;44.536;18.664;2023-02-13T04:58:26;3.00;99.90
52765;DHT22;38650;44.536;18.664;2023-02-13T05:00:51;3.00;99.90
52765;DHT22;38650;44.536;18.664;2023-02-13T05:03:17;3.00;99.90
52765;DHT22;38650;44.536;18.664;2023-02-13T05:05:43;3.00;99.90
52765;DHT22;38650;44.536;18.664;2023-02-13T05:08:09;3.00;99.90
52765;DHT22;38650;44.536;18.664;2023-02-13T05:10:35;2.90;99.90
52765;DHT22;38650;44.536;18.664;2023-02-13T05:13:01;2.80;99.90
52765;DHT22;38650;44.536;18.664;2023-02-13T05:15:27;2.80;99.90
52765;DHT22;38650;44.536;18.664;2023-02-13T05:17:53;2.80;99.90
52765;DHT22;38650;44.536;18.664;2023-02-13T05:20:19;2.90;99.90
52765;DHT22;38650;44.536;18.664;2023-02-13T05:22:47;2.80;99.90
52765;DHT22;38650;44.536;18.664;2023-02-13T05:25:32;2.80;99.90
52765;DHT22;38650;44.536;18.664;2023-02-13T05:27:58;2.80;99.90
52765;DHT22;38650;44.536;18.664;2023-02-13T05:30:24;2.80;99.90
52765;DHT22;38650;44.536;18.664;2023-02-13T05:32:50;2.60;99.90
52765;DHT22;38650;44.536;18.664;2023-02-13T05:35:17;2.50;99.90
52765;DHT22;38650;44.536;18.664;2023-02-13T05:37:43;2.50;99.90
52765;DHT22;38650;44.536;18.664;2023-02-13T05:40:10;2.40;99.90
52765;DHT22;38650;44.536;18.664;2023-02-13T05:42:41;2.50;99.90
52765;DHT22;38650;44.536;18.664;2023-02-13T05:45:08;2.60;99.90
52765;DHT22;38650;44.536;18.664;2023-02-13T05:47:34;2.60;99.90
52765;DHT22;38650;44.536;18.664;2023-02-13T05:50:00;2.60;99.90
52765;DHT22;38650;44.536;18.664;2023-02-13T05:52:26;2.50;99.90
52765;DHT22;38650;44.536;18.664;2023-02-13T05:54:52;2.50;99.90
52765;DHT22;38650;44.536;18.664;2023-02-13T05:57:17;2.60;99.90
52765;DHT22;38650;44.536;18.664;2023-02-13T05:59:43;2.60;99.90
52765;DHT22;38650;44.536;18.664;2023-02-13T06:02:09;2.70;99.90
52765;DHT22;38650;44.536;18.664;2023-02-13T06:04:35;2.60;99.90
52765;DHT22;38650;44.536;18.664;2023-02-13T06:07:00;2.50;99.90
52765;DHT22;38650;44.536;18.664;2023-02-13T06:09:26;2.40;99.90
52765;DHT22;38650;44.536;18.664;2023-02-13T06:11:52;2.50;99.90
52765;DHT22;38650;44.536;18.664;2023-02-13T06:14:17;2.60;99.90
52765;DHT22;38650;44.536;18.664;2023-02-13T06:16:43;2.60;99.90
52765;DHT22;38650;44.536;18.664;2023-02-13T06:19:09;2.70;99.90
52765;DHT22;38650;44.536;18.664;2023-02-13T06:21:35;2.80;99.90
52765;DHT22;38650;44.536;18.664;2023-02-13T06:24:05;2.80;99.90
52765;DHT22;38650;44.536;18.664;2023-02-13T06:26:32;2.90;99.90
52765;DHT22;38650;44.536;18.664;2023-02-13T06:28:58;3.00;99.90
52765;DHT22;38650;44.536;18.664;2023-02-13T06:31:24;3.00;99.90
52765;DHT22;38650;44.536;18.664;2023-02-13T06:33:49;3.10;99.90
52765;DHT22;38650;44.536;18.664;2023-02-13T06:36:15;3.20;99.90
52765;DHT22;38650;44.536;18.664;2023-02-13T06:38:41;3.20;99.90
52765;DHT22;38650;44.536;18.664;2023-02-13T06:41:07;3.20;99.90
52765;DHT22;38650;44.536;18.664;2023-02-13T06:43:34;3.40;99.90
52765;DHT22;38650;44.536;18.664;2023-02-13T06:46:07;3.40;99.90
52765;DHT22;38650;44.536;18.664;2023-02-13T06:48:33;3.50;99.90
52765;DHT22;38650;44.536;18.664;2023-02-13T06:50:59;3.60;99.90
52765;DHT22;38650;44.536;18.664;2023-02-13T06:53:26;3.60;99.90
52765;DHT22;38650;44.536;18.664;2023-02-13T06:55:53;3.70;99.90
52765;DHT22;38650;44.536;18.664;2023-02-13T06:58:20;3.70;99.90
52765;DHT22;38650;44.536;18.664;2023-02-13T07:00:46;3.70;99.90
52765;DHT22;38650;44.536;18.664;2023-02-13T07:03:11;3.60;99.90
52765;DHT22;38650;44.536;18.664;2023-02-13T07:05:41;3.60;99.90
52765;DHT22;38650;44.536;18.664;2023-02-13T07:08:11;3.60;99.90
52765;DHT22;38650;44.536;18.664;2023-02-13T07:10:38;3.70;99.90
52765;DHT22;38650;44.536;18.664;2023-02-13T07:13:04;3.70;99.90
52765;DHT22;38650;44.536;18.664;2023-02-13T07:15:30;3.70;99.90
52765;DHT22;38650;44.536;18.664;2023-02-13T07:17:58;3.80;99.90
52765;DHT22;38650;44.536;18.664;2023-02-13T07:20:25;3.90;99.90
52765;DHT22;38650;44.536;18.664;2023-02-13T07:22:51;4.10;99.90
52765;DHT22;38650;44.536;18.664;2023-02-13T07:25:17;4.30;99.90
52765;DHT22;38650;44.536;18.664;2023-02-13T07:27:43;4.40;99.90
52765;DHT22;38650;44.536;18.664;2023-02-13T07:30:10;4.60;99.90
52765;DHT22;38650;44.536;18.664;2023-02-13T07:32:36;5.30;99.90
52765;DHT22;38650;44.536;18.664;2023-02-13T07:35:02;6.80;99.90
52765;DHT22;38650;44.536;18.664;2023-02-13T07:37:29;8.10;99.30
52765;DHT22;38650;44.536;18.664;2023-02-13T07:39:55;9.00;94.40
52765;DHT22;38650;44.536;18.664;2023-02-13T07:42:21;9.80;91.80
52765;DHT22;38650;44.536;18.664;2023-02-13T07:44:47;10.30;87.20
52765;DHT22;38650;44.536;18.664;2023-02-13T07:47:13;10.90;84.00
52765;DHT22;38650;44.536;18.664;2023-02-13T07:49:38;11.30;80.20
52765;DHT22;38650;44.536;18.664;2023-02-13T07:52:05;11.90;77.70
52765;DHT22;38650;44.536;18.664;2023-02-13T07:54:31;12.40;73.00
52765;DHT22;38650;44.536;18.664;2023-02-13T07:56:57;13.00;71.90
52765;DHT22;38650;44.536;18.664;2023-02-13T07:59:26;13.40;66.90
52765;DHT22;38650;44.536;18.664;2023-02-13T08:01:51;13.40;66.30
52765;DHT22;38650;44.536;18.664;2023-02-13T08:04:17;13.60;65.40
52765;DHT22;38650;44.536;18.664;2023-02-13T08:06:43;13.30;65.30
52765;DHT22;38650;44.536;18.664;2023-02-13T08:09:18;12.70;65.90
52765;DHT22;38650;44.536;18.664;2023-02-13T08:12:05;12.60;65.90
52765;DHT22;38650;44.536;18.664;2023-02-13T08:14:31;12.20;66.40
52765;DHT22;38650;44.536;18.664;2023-02-13T08:16:58;12.20;68.00
52765;DHT22;38650;44.536;18.664;2023-02-13T08:19:24;12.90;67.90
52765;DHT22;38650;44.536;18.664;2023-02-13T08:21:50;13.30;66.30
52765;DHT22;38650;44.536;18.664;2023-02-13T08:24:15;13.40;63.50
52765;DHT22;38650;44.536;18.664;2023-02-13T08:26:41;12.90;64.40
52765;DHT22;38650;44.536;18.664;2023-02-13T08:29:07;12.20;64.50
52765;DHT22;38650;44.536;18.664;2023-02-13T08:31:33;11.50;67.60
52765;DHT22;38650;44.536;18.664;2023-02-13T08:33:59;11.10;68.00
52765;DHT22;38650;44.536;18.664;2023-02-13T08:36:25;10.70;69.80
52765;DHT22;38650;44.536;18.664;2023-02-13T08:38:51;11.30;71.40
52765;DHT22;38650;44.536;18.664;2023-02-13T08:41:17;12.40;70.60
52765;DHT22;38650;44.536;18.664;2023-02-13T08:43:43;13.50;67.50
52765;DHT22;38650;44.536;18.664;2023-02-13T08:46:10;14.20;64.80
52765;DHT22;38650;44.536;18.664;2023-02-13T08:48:35;13.70;62.70
52765;DHT22;38650;44.536;18.664;2023-02-13T08:51:06;12.80;64.10
52765;DHT22;38650;44.536;18.664;2023-02-13T08:53:40;12.10;65.70
52765;DHT22;38650;44.536;18.664;2023-02-13T08:56:17;11.40;68.40
52765;DHT22;38650;44.536;18.664;2023-02-13T08:58:48;11.00;71.70
52765;DHT22;38650;44.536;18.664;2023-02-13T09:01:15;10.80;72.30
52765;DHT22;38650;44.536;18.664;2023-02-13T09:03:41;11.00;73.10
52765;DHT22;38650;44.536;18.664;2023-02-13T09:06:07;11.10;73.80
52765;DHT22;38650;44.536;18.664;2023-02-13T09:08:34;11.20;74.20
52765;DHT22;38650;44.536;18.664;2023-02-13T09:11:01;11.40;72.80
52765;DHT22;38650;44.536;18.664;2023-02-13T09:13:29;11.20;74.00
52765;DHT22;38650;44.536;18.664;2023-02-13T09:16:01;11.30;73.70
52765;DHT22;38650;44.536;18.664;2023-02-13T09:18:27;11.40;74.80
52765;DHT22;38650;44.536;18.664;2023-02-13T09:21:00;11.00;76.00
52765;DHT22;38650;44.536;18.664;2023-02-13T09:23:26;11.00;75.00
52765;DHT22;38650;44.536;18.664;2023-02-13T09:26:00;11.00;75.20
52765;DHT22;38650;44.536;18.664;2023-02-13T09:28:28;11.10;74.50
52765;DHT22;38650;44.536;18.664;2023-02-13T09:30:54;11.20;74.50
52765;DHT22;38650;44.536;18.664;2023-02-13T09:33:19;11.30;75.00
52765;DHT22;38650;44.536;18.664;2023-02-13T09:35:45;11.10;74.30
52765;DHT22;38650;44.536;18.664;2023-02-13T09:38:11;10.90;74.80
52765;DHT22;38650;44.536;18.664;2023-02-13T09:40:57;10.60;77.10
52765;DHT22;38650;44.536;18.664;2023-02-13T09:46:06;10.40;76.80
52765;DHT22;38650;44.536;18.664;2023-02-13T09:48:36;10.50;78.80
52765;DHT22;38650;44.536;18.664;2023-02-13T09:51:04;10.80;77.50
52765;DHT22;38650;44.536;18.664;2023-02-13T09:53:30;11.20;77.00
52765;DHT22;38650;44.536;18.664;2023-02-13T10:01:27;12.40;74.90
52765;DHT22;38650;44.536;18.664;2023-02-13T10:07:38;13.20;71.90
52765;DHT22;38650;44.536;18.664;2023-02-13T10:10:05;13.50;71.30
52765;DHT22;38650;44.536;18.664;2023-02-13T10:13:27;13.90;67.80
52765;DHT22;38650;44.536;18.664;2023-02-13T10:18:16;14.40;66.30
52765;DHT22;38650;44.536;18.664;2023-02-13T10:23:37;14.80;66.80
52765;DHT22;38650;44.536;18.664;2023-02-13T10:29:02;15.00;62.70
52765;DHT22;38650;44.536;18.664;2023-02-13T10:31:50;15.10;63.60
52765;DHT22;38650;44.536;18.664;2023-02-13T10:34:21;15.40;61.80
52765;DHT22;38650;44.536;18.664;2023-02-13T10:36:49;15.40;62.50
52765;DHT22;38650;44.536;18.664;2023-02-13T10:39:29;15.60;61.10
52765;DHT22;38650;44.536;18.664;2023-02-13T10:59:04;16.40;56.70
52765;DHT22;38650;44.536;18.664;2023-02-13T11:06:35;16.50;55.60
52765;DHT22;38650;44.536;18.664;2023-02-13T11:09:05;16.40;56.30
52765;DHT22;38650;44.536;18.664;2023-02-13T11:11:37;16.50;55.70
52765;DHT22;38650;44.536;18.664;2023-02-13T11:17:05;16.60;55.20
52765;DHT22;38650;44.536;18.664;2023-02-13T11:22:16;17.00;52.90
52765;DHT22;38650;44.536;18.664;2023-02-13T11:24:55;16.80;54.80
52765;DHT22;38650;44.536;18.664;2023-02-13T11:27:27;16.80;55.60
52765;DHT22;38650;44.536;18.664;2023-02-13T11:30:03;17.10;52.80
52765;DHT22;38650;44.536;18.664;2023-02-13T11:32:31;17.20;52.60
52765;DHT22;38650;44.536;18.664;2023-02-13T11:35:33;16.90;52.20
52765;DHT22;38650;44.536;18.664;2023-02-13T11:40:49;16.60;51.70
52765;DHT22;38650;44.536;18.664;2023-02-13T11:43:57;16.70;53.20
52765;DHT22;38650;44.536;18.664;2023-02-13T11:49:43;16.90;52.50
52765;DHT22;38650;44.536;18.664;2023-02-13T11:52:26;17.20;52.40
52765;DHT22;38650;44.536;18.664;2023-02-13T11:55:00;17.20;51.10
52765;DHT22;38650;44.536;18.664;2023-02-13T11:57:34;17.20;50.60
52765;DHT22;38650;44.536;18.664;2023-02-13T12:00:30;17.10;50.80
52765;DHT22;38650;44.536;18.664;2023-02-13T12:02:58;17.30;50.30
52765;DHT22;38650;44.536;18.664;2023-02-13T12:05:27;17.20;51.30
52765;DHT22;38650;44.536;18.664;2023-02-13T12:07:58;16.90;50.10
52765;DHT22;38650;44.536;18.664;2023-02-13T12:10:29;17.20;50.00
52765;DHT22;38650;44.536;18.664;2023-02-13T12:13:14;17.50;49.20
52765;DHT22;38650;44.536;18.664;2023-02-13T12:15:46;17.30;47.90
52765;DHT22;38650;44.536;18.664;2023-02-13T12:18:36;16.90;49.50
52765;DHT22;38650;44.536;18.664;2023-02-13T12:26:43;18.00;46.00
52765;DHT22;38650;44.536;18.664;2023-02-13T12:35:29;17.10;46.70
52765;DHT22;38650;44.536;18.664;2023-02-13T12:43:44;16.40;45.30
52765;DHT22;38650;44.536;18.664;2023-02-13T12:46:33;16.60;45.60
52765;DHT22;38650;44.536;18.664;2023-02-13T12:49:25;16.50;45.70
52765;DHT22;38650;44.536;18.664;2023-02-13T12:57:38;16.90;46.00
52765;DHT22;38650;44.536;18.664;2023-02-13T13:00:13;17.10;44.90
52765;DHT22;38650;44.536;18.664;2023-02-13T13:08:39;17.60;44.80
52765;DHT22;38650;44.536;18.664;2023-02-13T13:22:51;17.30;44.10
52765;DHT22;38650;44.536;18.664;2023-02-13T13:28:37;18.00;43.40
52765;DHT22;38650;44.536;18.664;2023-02-13T13:31:04;18.20;42.90
52765;DHT22;38650;44.536;18.664;2023-02-13T13:33:32;18.30;43.20
52765;DHT22;38650;44.536;18.664;2023-02-13T13:41:55;18.30;43.30
52765;DHT22;38650;44.536;18.664;2023-02-13T13:47:39;18.70;41.50
52765;DHT22;38650;44.536;18.664;2023-02-13T13:50:26;18.70;41.80
52765;DHT22;38650;44.536;18.664;2023-02-13T14:03:42;17.70;42.30
52765;DHT22;38650;44.536;18.664;2023-02-13T14:06:14;17.40;42.40
52765;DHT22;38650;44.536;18.664;2023-02-13T14:11:37;17.40;43.70
52765;DHT22;38650;44.536;18.664;2023-02-13T14:16:52;17.50;42.70
52765;DHT22;38650;44.536;18.664;2023-02-13T14:24:51;17.40;42.10
52765;DHT22;38650;44.536;18.664;2023-02-13T14:27:21;17.20;42.40
52765;DHT22;38650;44.536;18.664;2023-02-13T14:29:47;17.10;42.30
52765;DHT22;38650;44.536;18.664;2023-02-13T14:35:15;16.50;43.40
52765;DHT22;38650;44.536;18.664;2023-02-13T14:37:51;16.10;45.00
52765;DHT22;38650;44.536;18.664;2023-02-13T14:42:45;16.50;43.80
52765;DHT22;38650;44.536;18.664;2023-02-13T14:45:16;16.70;43.30
52765;DHT22;38650;44.536;18.664;2023-02-13T14:47:47;17.00;42.80
52765;DHT22;38650;44.536;18.664;2023-02-13T14:50:50;17.10;42.70
52765;DHT22;38650;44.536;18.664;2023-02-13T14:53:30;17.20;42.90
52765;DHT22;38650;44.536;18.664;2023-02-13T14:56:02;17.40;41.80
52765;DHT22;38650;44.536;18.664;2023-02-13T14:58:34;17.60;42.10
52765;DHT22;38650;44.536;18.664;2023-02-13T15:01:10;17.70;42.20
52765;DHT22;38650;44.536;18.664;2023-02-13T15:03:48;17.50;42.00
52765;DHT22;38650;44.536;18.664;2023-02-13T15:06:34;17.50;42.40
52765;DHT22;38650;44.536;18.664;2023-02-13T15:09:04;17.60;43.10
52765;DHT22;38650;44.536;18.664;2023-02-13T15:11:42;16.50;42.70
52765;DHT22;38650;44.536;18.664;2023-02-13T15:14:32;16.30;43.80
52765;DHT22;38650;44.536;18.664;2023-02-13T15:19:31;16.60;43.50
52765;DHT22;38650;44.536;18.664;2023-02-13T15:21:59;16.30;44.90
52765;DHT22;38650;44.536;18.664;2023-02-13T15:24:26;15.70;44.80
52765;DHT22;38650;44.536;18.664;2023-02-13T15:26:59;15.00;47.20
52765;DHT22;38650;44.536;18.664;2023-02-13T15:29:25;13.90;49.20
52765;DHT22;38650;44.536;18.664;2023-02-13T15:31:51;13.60;49.00
52765;DHT22;38650;44.536;18.664;2023-02-13T15:34:29;13.80;48.70
52765;DHT22;38650;44.536;18.664;2023-02-13T15:36:57;14.20;48.80
52765;DHT22;38650;44.536;18.664;2023-02-13T15:39:28;13.90;48.80
52765;DHT22;38650;44.536;18.664;2023-02-13T15:41:56;13.10;51.30
52765;DHT22;38650;44.536;18.664;2023-02-13T15:44:33;12.20;53.50
52765;DHT22;38650;44.536;18.664;2023-02-13T15:47:05;11.60;55.20
52765;DHT22;38650;44.536;18.664;2023-02-13T15:49:41;11.00;56.20
52765;DHT22;38650;44.536;18.664;2023-02-13T15:54:52;10.80;57.30
52765;DHT22;38650;44.536;18.664;2023-02-13T15:57:19;10.60;57.90
52765;DHT22;38650;44.536;18.664;2023-02-13T15:59:45;10.60;58.10
52765;DHT22;38650;44.536;18.664;2023-02-13T16:02:18;10.50;58.30
52765;DHT22;38650;44.536;18.664;2023-02-13T16:04:50;10.30;59.00
52765;DHT22;38650;44.536;18.664;2023-02-13T16:07:16;10.20;59.20
52765;DHT22;38650;44.536;18.664;2023-02-13T16:09:42;10.00;60.70
52765;DHT22;38650;44.536;18.664;2023-02-13T16:12:23;9.80;60.40
52765;DHT22;38650;44.536;18.664;2023-02-13T16:14:55;9.50;61.60
52765;DHT22;38650;44.536;18.664;2023-02-13T16:25:24;9.80;61.80
52765;DHT22;38650;44.536;18.664;2023-02-13T16:27:53;9.50;63.00
52765;DHT22;38650;44.536;18.664;2023-02-13T16:35:51;8.70;66.50
52765;DHT22;38650;44.536;18.664;2023-02-13T16:38:37;8.20;68.30
52765;DHT22;38650;44.536;18.664;2023-02-13T16:41:29;8.10;69.80
52765;DHT22;38650;44.536;18.664;2023-02-13T16:43:57;7.80;71.20
52765;DHT22;38650;44.536;18.664;2023-02-13T16:51:51;7.50;74.70
52765;DHT22;38650;44.536;18.664;2023-02-13T16:56:53;7.40;76.40
52765;DHT22;38650;44.536;18.664;2023-02-13T17:07:29;7.20;79.20
52765;DHT22;38650;44.536;18.664;2023-02-13T17:10:04;7.20;79.80
52765;DHT22;38650;44.536;18.664;2023-02-13T17:12:34;7.10;80.60
52765;DHT22;38650;44.536;18.664;2023-02-13T17:15:00;6.80;83.10
52765;DHT22;38650;44.536;18.664;2023-02-13T17:17:28;6.80;83.80
52765;DHT22;38650;44.536;18.664;2023-02-13T17:19:55;7.00;84.10
52765;DHT22;38650;44.536;18.664;2023-02-13T17:22:39;7.10;83.30
52765;DHT22;38650;44.536;18.664;2023-02-13T17:25:21;7.10;83.70
52765;DHT22;38650;44.536;18.664;2023-02-13T17:27:49;7.20;83.50
52765;DHT22;38650;44.536;18.664;2023-02-13T17:30:17;7.40;82.40
52765;DHT22;38650;44.536;18.664;2023-02-13T17:32:45;7.50;81.70
52765;DHT22;38650;44.536;18.664;2023-02-13T17:35:12;7.50;81.20
52765;DHT22;38650;44.536;18.664;2023-02-13T17:37:40;7.50;81.20
52765;DHT22;38650;44.536;18.664;2023-02-13T17:40:06;7.60;81.20
52765;DHT22;38650;44.536;18.664;2023-02-13T17:42:32;7.80;80.70
52765;DHT22;38650;44.536;18.664;2023-02-13T17:44:58;7.90;79.40
52765;DHT22;38650;44.536;18.664;2023-02-13T17:47:25;7.90;79.30
52765;DHT22;38650;44.536;18.664;2023-02-13T17:49:51;7.80;79.70
52765;DHT22;38650;44.536;18.664;2023-02-13T17:52:25;7.80;79.50
52765;DHT22;38650;44.536;18.664;2023-02-13T17:54:51;7.80;79.70
52765;DHT22;38650;44.536;18.664;2023-02-13T17:57:17;7.70;79.80
52765;DHT22;38650;44.536;18.664;2023-02-13T17:59:43;7.70;79.90
52765;DHT22;38650;44.536;18.664;2023-02-13T18:02:20;7.70;80.60
52765;DHT22;38650;44.536;18.664;2023-02-13T18:04:46;7.80;79.50
52765;DHT22;38650;44.536;18.664;2023-02-13T18:07:14;7.90;79.10
52765;DHT22;38650;44.536;18.664;2023-02-13T18:09:40;7.80;79.10
52765;DHT22;38650;44.536;18.664;2023-02-13T18:12:11;7.80;79.40
52765;DHT22;38650;44.536;18.664;2023-02-13T18:14:37;7.60;80.00
52765;DHT22;38650;44.536;18.664;2023-02-13T18:17:02;7.30;81.50
52765;DHT22;38650;44.536;18.664;2023-02-13T18:19:28;7.10;82.20
52765;DHT22;38650;44.536;18.664;2023-02-13T18:21:54;7.20;82.00
52765;DHT22;38650;44.536;18.664;2023-02-13T18:24:19;7.10;82.50
52765;DHT22;38650;44.536;18.664;2023-02-13T18:26:45;6.90;83.70
52765;DHT22;38650;44.536;18.664;2023-02-13T18:29:11;6.70;84.70
52765;DHT22;38650;44.536;18.664;2023-02-13T18:31:36;6.70;85.30
52765;DHT22;38650;44.536;18.664;2023-02-13T18:34:02;6.60;86.00
52765;DHT22;38650;44.536;18.664;2023-02-13T18:36:28;6.40;87.30
52765;DHT22;38650;44.536;18.664;2023-02-13T18:38:53;6.30;88.80
52765;DHT22;38650;44.536;18.664;2023-02-13T18:41:19;6.20;89.70
52765;DHT22;38650;44.536;18.664;2023-02-13T18:43:46;6.10;90.10
52765;DHT22;38650;44.536;18.664;2023-02-13T18:46:12;5.90;91.20
52765;DHT22;38650;44.536;18.664;2023-02-13T18:48:37;5.80;91.80
52765;DHT22;38650;44.536;18.664;2023-02-13T18:51:03;6.00;91.60
52765;DHT22;38650;44.536;18.664;2023-02-13T18:53:29;6.00;91.50
52765;DHT22;38650;44.536;18.664;2023-02-13T18:56:02;5.90;91.90
52765;DHT22;38650;44.536;18.664;2023-02-13T18:58:28;5.70;92.60
52765;DHT22;38650;44.536;18.664;2023-02-13T19:00:54;5.70;93.30
52765;DHT22;38650;44.536;18.664;2023-02-13T19:03:20;5.60;93.60
52765;DHT22;38650;44.536;18.664;2023-02-13T19:05:46;5.60;94.10
52765;DHT22;38650;44.536;18.664;2023-02-13T19:08:11;5.60;94.70
52765;DHT22;38650;44.536;18.664;2023-02-13T19:10:38;5.50;95.00
52765;DHT22;38650;44.536;18.664;2023-02-13T19:13:03;5.50;95.30
52765;DHT22;38650;44.536;18.664;2023-02-13T19:15:29;5.50;95.60
52765;DHT22;38650;44.536;18.664;2023-02-13T19:17:55;5.40;96.00
52765;DHT22;38650;44.536;18.664;2023-02-13T19:20:22;5.40;96.10
52765;DHT22;38650;44.536;18.664;2023-02-13T19:22:48;5.40;96.00
52765;DHT22;38650;44.536;18.664;2023-02-13T19:25:14;5.30;96.50
52765;DHT22;38650;44.536;18.664;2023-02-13T19:27:40;5.30;97.00